Time;durP1;ratioP1;P1;durP2;ratioP2;P2;SDS_P1;SDS_P2;PMS_P1;PMS_P2;Temp;Humidity;BMP_temperature;BMP_pressure;BME280_temperature;BME280_humidity;BME280_pressure;Samples;Min_cycle;Max_cycle;Signal;HPM_P1;HPM_P2
2023/05/11 00:01:06;;;;;;;6.00;2.40;;;;;;;15.90;43.78;99850.84;7770432;32;39713;-86
2023/05/11 00:05:23;;;;;;;4.22;2.30;;;;;;;15.80;43.76;99848.31;7792040;32;37797;-86
2023/05/11 00:09:40;;;;;;;4.35;2.60;;;;;;;15.54;43.92;99854.28;7764989;32;37791;-87
2023/05/11 00:13:56;;;;;;;5.57;2.72;;;;;;;15.54;44.06;99859.78;7764411;32;39395;-86
2023/05/11 00:18:13;;;;;;;5.22;2.90;;;;;;;15.45;44.32;99861.59;7764853;32;40757;-86
2023/05/11 00:22:29;;;;;;;2.78;2.15;;;;;;;15.40;44.52;99854.25;7764629;32;37881;-86
2023/05/11 00:26:45;;;;;;;3.35;2.53;;;;;;;15.33;44.98;99865.66;7764593;32;37136;-86
2023/05/11 00:31:02;;;;;;;4.35;2.50;;;;;;;14.99;46.22;99866.75;7769556;32;39957;-86
2023/05/11 00:35:18;;;;;;;4.47;2.55;;;;;;;14.95;46.45;99863.00;7791596;32;39878;-85
2023/05/11 00:39:39;;;;;;;5.00;2.75;;;;;;;15.30;45.62;99862.69;7777597;32;39008;-85
2023/05/11 00:43:55;;;;;;;5.50;2.92;;;;;;;15.05;46.19;99853.75;7791511;32;37159;-85
2023/05/11 00:48:12;;;;;;;2.85;2.22;;;;;;;15.28;45.61;99846.50;7791350;32;39550;-86
2023/05/11 00:52:28;;;;;;;4.55;2.15;;;;;;;15.08;45.75;99852.34;7791204;32;39666;-86
2023/05/11 00:56:45;;;;;;;3.85;2.40;;;;;;;14.91;46.13;99848.22;7786952;32;38729;-86
2023/05/11 01:01:01;;;;;;;5.28;2.62;;;;;;;15.10;44.91;99850.13;7750047;32;37230;-86
2023/05/11 01:05:18;;;;;;;4.12;2.40;;;;;;;14.98;44.77;99853.34;7749822;32;39366;-86
2023/05/11 01:10:05;;;;;;;3.55;2.28;;;;;;;15.08;43.59;99838.63;7763417;32;40564;-86
2023/05/11 01:14:33;;;;;;;3.58;2.42;;;;;;;15.14;42.63;99845.66;7763524;32;38015;-85
2023/05/11 01:18:58;;;;;;;4.85;2.33;;;;;;;14.82;43.12;99850.03;7750866;32;37746;-85
2023/05/11 01:23:42;;;;;;;6.32;2.60;;;;;;;14.97;43.81;99847.03;7737482;32;40154;-85
2023/05/11 01:28:06;;;;;;;;;;;;;;;15.15;42.35;99847.28;7774775;32;39636;-85
2023/05/11 01:32:27;;;;;;;2.60;2.20;;;;;;;15.15;41.92;99848.09;7794125;32;38225;-86
2023/05/11 01:36:59;;;;;;;4.22;2.40;;;;;;;15.23;43.53;99843.84;7793930;32;37828;-86
2023/05/11 01:41:17;;;;;;;3.10;2.30;;;;;;;15.25;43.32;99851.81;7780532;32;40633;-85
2023/05/11 01:45:38;;;;;;;4.45;2.35;;;;;;;15.09;41.97;99854.81;7779932;32;39905;-88
2023/05/11 01:49:56;;;;;;;3.70;1.90;;;;;;;15.45;42.89;99856.09;7793829;32;37633;-87
2023/05/11 01:54:12;;;;;;;5.75;2.40;;;;;;;15.61;43.16;99842.88;7780005;32;36641;-86
2023/05/11 01:58:30;;;;;;;5.62;2.37;;;;;;;15.39;43.10;99853.44;7768045;32;40128;-87
2023/05/11 02:02:47;;;;;;;10.02;2.20;;;;;;;15.28;43.02;99846.50;7752650;32;39661;-86
2023/05/11 02:07:05;;;;;;;3.25;2.12;;;;;;;15.31;43.25;99850.56;7766196;32;37639;-86
2023/05/11 02:11:23;;;;;;;3.72;2.33;;;;;;;15.26;43.33;99854.22;7766395;32;37286;-87
2023/05/11 02:15:41;;;;;;;2.90;2.10;;;;;;;15.20;42.94;99847.19;7766391;32;38495;-87
2023/05/11 02:20:00;;;;;;;3.78;2.15;;;;;;;15.22;43.07;99850.44;7766833;32;41080;-86
2023/05/11 02:24:17;;;;;;;5.15;2.60;;;;;;;15.34;42.89;99853.53;7752524;32;38294;-86
2023/05/11 02:28:33;;;;;;;4.12;2.42;;;;;;;14.98;44.05;99843.16;7780771;32;37398;-87
2023/05/11 02:32:53;;;;;;;4.47;2.70;;;;;;;15.16;43.30;99837.91;7779336;32;39147;-86
2023/05/11 02:37:16;;;;;;;4.62;2.40;;;;;;;14.91;44.00;99839.19;7779502;32;39886;-86
2023/05/11 02:41:37;;;;;;;7.00;2.65;;;;;;;14.79;42.89;99840.44;7779844;32;38382;-86
2023/05/11 02:45:58;;;;;;;5.20;2.83;;;;;;;14.99;43.17;99835.75;7779745;32;37893;-87
2023/05/11 02:50:16;;;;;;;5.32;2.67;;;;;;;14.93;42.95;99835.00;7779352;32;39962;-85
2023/05/11 02:54:33;;;;;;;5.05;2.30;;;;;;;14.74;43.80;99835.03;7777372;32;38979;-86
2023/05/11 02:58:49;;;;;;;4.87;2.47;;;;;;;14.79;43.70;99834.16;7765709;32;38649;-86
2023/05/11 03:03:06;;;;;;;4.15;2.72;;;;;;;14.67;44.06;99837.34;7765699;32;37268;-86
2023/05/11 03:07:22;;;;;;;5.25;2.72;;;;;;;14.78;44.09;99838.81;7765336;32;40074;-86
2023/05/11 03:11:39;;;;;;;3.87;2.33;;;;;;;14.87;43.98;99840.87;7765615;32;39859;-86
2023/05/11 03:15:56;;;;;;;4.45;2.50;;;;;;;14.91;43.87;99837.25;7751691;32;37998;-86
2023/05/11 03:20:14;;;;;;;5.18;2.80;;;;;;;14.83;43.93;99829.69;7765530;32;37829;-86
2023/05/11 03:24:31;;;;;;;5.62;2.55;;;;;;;14.84;43.90;99837.62;7752035;32;38606;-87
2023/05/11 03:28:49;;;;;;;5.22;2.50;;;;;;;14.88;43.86;99842.50;7778373;32;39488;-86
2023/05/11 03:33:06;;;;;;;4.43;2.75;;;;;;;14.95;43.90;99841.03;7778760;32;37943;-86
2023/05/11 03:37:22;;;;;;;5.35;2.65;;;;;;;14.86;44.85;99840.06;7778532;32;37165;-86
2023/05/11 03:41:41;;;;;;;3.75;2.67;;;;;;;14.88;43.75;99835.09;7778534;32;39980;-86
2023/05/11 03:45:57;;;;;;;3.78;2.62;;;;;;;14.87;45.05;99843.63;7778482;32;39937;-86
2023/05/11 03:50:14;;;;;;;4.78;2.35;;;;;;;14.99;44.60;99841.25;7777651;32;37561;-86
2023/05/11 03:54:31;;;;;;;6.65;2.72;;;;;;;15.05;43.77;99847.47;7777970;32;38022;-86
2023/05/11 03:58:47;;;;;;;8.50;2.70;;;;;;;14.74;45.07;99843.25;7792337;32;39445;-87
2023/05/11 04:03:07;;;;;;;5.10;2.50;;;;;;;15.12;43.96;99845.94;7792215;32;39690;-85
2023/05/11 04:07:24;;;;;;;4.28;2.67;;;;;;;14.94;45.64;99842.13;7792023;32;37949;-86
2023/05/11 04:11:41;;;;;;;4.97;2.53;;;;;;;15.09;44.73;99848.47;7792005;32;37988;-86
2023/05/11 04:15:57;;;;;;;4.35;2.55;;;;;;;14.88;44.92;99848.00;7791906;32;40047;-86
2023/05/11 04:20:13;;;;;;;5.82;2.75;;;;;;;14.71;45.35;99849.37;7791939;32;40056;-86
2023/05/11 04:24:30;;;;;;;5.87;2.97;;;;;;;15.02;45.42;99849.69;7790480;32;37503;-86
2023/05/11 04:28:46;;;;;;;8.70;2.65;;;;;;;15.08;45.08;99860.59;7791816;32;37721;-86
2023/05/11 04:33:03;;;;;;;6.35;2.70;;;;;;;15.11;45.72;99854.47;7792232;32;39394;-86
2023/05/11 04:37:20;;;;;;;4.87;2.90;;;;;;;15.11;45.28;99860.81;7791603;32;39595;-85
2023/05/11 04:41:36;;;;;;;5.82;2.97;;;;;;;15.15;46.00;99858.28;7791460;32;38032;-86
2023/05/11 04:45:53;;;;;;;5.07;2.62;;;;;;;15.31;45.33;99859.62;7791469;32;37033;-86
2023/05/11 04:50:09;;;;;;;7.43;2.78;;;;;;;15.39;44.76;99863.63;7791372;32;39525;-86
2023/05/11 04:54:26;;;;;;;5.70;3.10;;;;;;;15.39;45.69;99861.69;7768534;32;40676;-86
2023/05/11 04:58:45;;;;;;;5.50;2.80;;;;;;;15.22;45.91;99872.44;7763813;32;38028;-87
2023/05/11 05:03:01;;;;;;;11.75;3.40;;;;;;;15.50;44.39;99869.75;7765623;32;37829;-85
2023/05/11 05:07:18;;;;;;;11.38;3.53;;;;;;;15.35;45.09;99863.41;7766503;32;39904;-87
2023/05/11 05:11:34;;;;;;;7.90;3.78;;;;;;;15.55;44.61;99866.91;7764788;32;40918;-86
2023/05/11 05:15:51;;;;;;;4.47;2.97;;;;;;;15.45;45.13;99872.56;7766033;32;38361;-89
2023/05/11 05:20:08;;;;;;;4.20;2.80;;;;;;;15.46;44.88;99877.78;7766909;32;38096;-86
2023/05/11 05:24:24;;;;;;;8.90;2.95;;;;;;;15.22;44.42;99875.16;7766681;32;39000;-86
2023/05/11 05:28:40;;;;;;;6.40;3.17;;;;;;;15.68;44.30;99879.03;7765384;32;40036;-86
2023/05/11 05:32:56;;;;;;;6.30;2.90;;;;;;;15.51;43.59;99885.91;7763262;32;37542;-86
2023/05/11 05:37:13;;;;;;;4.82;2.90;;;;;;;15.69;43.71;99889.69;7763166;32;37016;-86
2023/05/11 05:41:30;;;;;;;5.00;2.90;;;;;;;16.01;42.87;99879.78;7762872;32;39806;-81
2023/05/11 05:45:46;;;;;;;5.95;2.97;;;;;;;16.16;44.66;99889.69;7765928;32;40591;-78
2023/05/11 05:50:02;;;;;;;5.22;2.55;;;;;;;16.28;45.24;99878.13;7765805;32;38037;-78
2023/05/11 05:54:19;;;;;;;6.47;2.90;;;;;;;16.70;44.47;99887.13;7765895;32;37876;-75
2023/05/11 05:58:35;;;;;;;7.12;2.40;;;;;;;16.53;43.17;99880.31;7766394;32;39388;-86
2023/05/11 06:02:52;;;;;;;4.75;2.58;;;;;;;16.79;42.72;99881.69;7753235;32;39969;-85
2023/05/11 06:07:08;;;;;;;7.00;2.50;;;;;;;16.94;41.55;99875.06;7786910;32;37548;-85
2023/05/11 06:11:25;;;;;;;6.10;2.78;;;;;;;16.82;39.49;99881.88;7779286;32;37336;-85
2023/05/11 06:15:41;;;;;;;4.68;2.60;;;;;;;16.62;40.43;99882.34;7791628;32;40006;-85
2023/05/11 06:19:58;;;;;;;5.97;2.55;;;;;;;16.78;40.26;99880.88;7765488;32;39988;-84
2023/05/11 06:24:15;;;;;;;9.38;3.17;;;;;;;16.82;40.21;99883.81;7765372;32;37887;-85
2023/05/11 06:28:31;;;;;;;5.68;2.85;;;;;;;16.87;39.76;99883.75;7762602;32;37814;-86
2023/05/11 06:32:47;;;;;;;5.15;2.58;;;;;;;16.58;40.30;99886.84;7780416;32;40048;-85
2023/05/11 06:37:04;;;;;;;4.30;2.60;;;;;;;16.40;40.84;99894.94;7789869;32;40674;-85
2023/05/11 06:41:21;;;;;;;4.37;2.55;;;;;;;16.64;39.72;99896.59;7789877;32;38058;-85
2023/05/11 06:45:37;;;;;;;6.65;2.55;;;;;;;17.00;39.65;99887.56;7776959;32;37790;-85
2023/05/11 06:49:54;;;;;;;7.85;2.42;;;;;;;16.85;40.38;99892.31;7791853;32;40078;-86
2023/05/11 06:54:10;;;;;;;5.15;2.87;;;;;;;16.64;41.38;99891.09;7794154;32;39743;-85
2023/05/11 06:58:26;;;;;;;6.07;2.72;;;;;;;16.75;40.66;99891.69;7784679;32;38048;-85
2023/05/11 07:02:43;;;;;;;4.85;2.62;;;;;;;16.60;41.09;99901.13;7778897;32;36916;-84
2023/05/11 07:06:59;;;;;;;5.93;3.00;;;;;;;16.27;41.46;99898.53;7792798;32;40234;-86
2023/05/11 07:11:16;;;;;;;7.70;2.70;;;;;;;16.38;40.83;99897.16;7784395;32;41128;-85
2023/05/11 07:15:32;;;;;;;12.10;3.08;;;;;;;16.18;41.01;99900.34;7777740;32;37566;-85
2023/05/11 07:19:51;;;;;;;10.13;2.92;;;;;;;16.37;41.71;99909.31;7775376;32;37154;-85
2023/05/11 07:24:07;;;;;;;5.32;3.08;;;;;;;16.19;40.28;99902.78;7777595;32;39281;-84
2023/05/11 07:28:24;;;;;;;8.00;2.58;;;;;;;16.48;40.21;99899.69;7775543;32;40922;-85
2023/05/11 07:32:40;;;;;;;7.22;3.05;;;;;;;16.41;39.78;99898.50;7777186;32;37751;-85
2023/05/11 07:36:57;;;;;;;6.65;3.12;;;;;;;16.18;39.71;99900.34;7765150;32;37003;-86
2023/05/11 07:41:13;;;;;;;6.62;2.78;;;;;;;16.80;39.46;99899.81;7773848;32;40039;-85
2023/05/11 07:45:30;;;;;;;6.93;3.10;;;;;;;17.16;37.75;99901.75;7773971;32;40063;-86
2023/05/11 07:49:47;;;;;;;5.10;2.87;;;;;;;17.29;38.67;99903.63;7781743;32;38890;-85
2023/05/11 07:54:03;;;;;;;7.80;3.00;;;;;;;17.32;39.18;99894.75;7792721;32;36367;-85
2023/05/11 07:58:20;;;;;;;10.75;2.85;;;;;;;17.52;39.23;99903.63;7770487;32;40128;-85
2023/05/11 08:02:36;;;;;;;10.30;2.83;;;;;;;17.70;37.85;99901.78;7765015;32;40655;-86
2023/05/11 08:06:53;;;;;;;5.35;2.40;;;;;;;18.17;37.30;99891.09;7744879;32;189821;-85
2023/05/11 08:11:09;;;;;;;10.82;3.70;;;;;;;18.25;36.86;99901.37;7764690;32;37554;-85
2023/05/11 08:15:26;;;;;;;13.13;3.05;;;;;;;17.76;38.98;99904.06;7764813;32;40440;-86
2023/05/11 08:19:42;;;;;;;7.10;2.87;;;;;;;17.95;37.96;99900.28;7764635;32;40889;-85
2023/05/11 08:23:59;;;;;;;5.32;2.65;;;;;;;18.01;37.32;99899.03;7764172;32;37878;-85
2023/05/11 08:28:15;;;;;;;5.60;3.15;;;;;;;18.70;37.55;99892.84;7753099;32;37105;-86
2023/05/11 08:32:34;;;;;;;7.90;2.87;;;;;;;18.59;36.89;99894.28;7779986;32;39322;-85
2023/05/11 08:37:09;;;;;;;5.03;2.85;;;;;;;19.18;36.53;99893.00;7775277;32;39901;-87
2023/05/11 08:41:25;;;;;;;7.00;2.78;;;;;;;18.77;36.53;99897.88;7766138;32;38117;-75
2023/05/11 08:45:46;;;;;;;4.47;2.92;;;;;;;18.85;36.24;99882.47;7775397;32;37918;-85
2023/05/11 08:50:03;;;;;;;4.10;2.53;;;;;;;19.24;35.33;99880.66;7765005;32;39781;-85
2023/05/11 08:54:19;;;;;;;9.90;2.83;;;;;;;19.41;35.75;99877.84;7761195;32;40002;-86
2023/05/11 08:58:38;;;;;;;10.65;3.12;;;;;;;19.30;37.06;99882.13;7766021;32;38188;-85
2023/05/11 09:02:56;;;;;;;6.43;2.78;;;;;;;19.60;35.89;99873.91;7769035;32;37007;-85
2023/05/11 09:07:17;;;;;;;5.47;2.62;;;;;;;19.62;36.37;99855.81;7752873;32;40126;-84
2023/05/11 09:11:33;;;;;;;6.62;2.58;;;;;;;20.04;34.99;99852.41;7781797;32;40966;-85
2023/05/11 09:15:50;;;;;;;7.75;2.95;;;;;;;20.19;33.72;99851.03;7772865;32;37890;-86
2023/05/11 09:20:08;;;;;;;5.93;2.67;;;;;;;20.34;34.19;99852.41;7764565;32;37812;-87
2023/05/11 09:24:24;;;;;;;5.18;2.28;;;;;;;20.44;32.97;99838.16;7771598;32;39901;-86
2023/05/11 09:28:52;;;;;;;5.05;2.70;;;;;;;20.35;34.13;99843.78;7760879;32;40687;-86
2023/05/11 09:33:22;;;;;;;3.72;2.40;;;;;;;20.82;34.43;99834.47;7767030;32;37878;-86
2023/05/11 09:37:39;;;;;;;5.60;2.80;;;;;;;20.84;33.55;99826.63;7764894;32;37948;-85
2023/05/11 09:42:14;;;;;;;10.45;2.78;;;;;;;20.81;34.13;99825.31;7765475;32;40105;-85
2023/05/11 09:46:31;;;;;;;4.85;2.70;;;;;;;21.06;33.89;99816.28;7787796;32;40778;-72
2023/05/11 09:50:49;;;;;;;4.28;2.58;;;;;;;21.27;33.45;99811.50;7752123;32;37915;-72
2023/05/11 09:55:10;;;;;;;6.85;2.58;;;;;;;21.27;33.08;99800.44;7766435;32;37780;-72
2023/05/11 09:59:42;;;;;;;5.35;2.50;;;;;;;21.30;34.03;99796.97;7766460;32;40353;-72
2023/05/11 10:04:02;;;;;;;4.07;2.35;;;;;;;21.60;32.79;99793.22;7766348;32;39582;-72
2023/05/11 10:08:37;;;;;;;6.55;2.87;;;;;;;22.34;31.78;99774.53;7779189;32;37925;-73
2023/05/11 10:12:57;;;;;;;6.15;2.40;;;;;;;21.76;32.30;99771.94;7779659;32;37098;-73
2023/05/11 10:17:13;;;;;;;8.02;2.30;;;;;;;22.54;31.63;99772.72;7777721;32;39293;-71
2023/05/11 10:21:30;;;;;;;8.55;2.12;;;;;;;22.63;32.02;99764.25;7753297;32;39965;-72
2023/05/11 10:25:47;;;;;;;2.62;1.90;;;;;;;22.49;31.69;99759.91;7791985;32;38116;-72
2023/05/11 10:30:05;;;;;;;4.35;1.90;;;;;;;22.83;29.82;99760.44;7779099;32;37916;-72
2023/05/11 10:34:22;;;;;;;4.70;2.28;;;;;;;22.52;28.13;99760.38;7777115;32;39343;-72
2023/05/11 10:38:39;;;;;;;7.87;2.40;;;;;;;22.69;28.50;99760.06;7775212;32;39955;-73
2023/05/11 10:43:18;;;;;;;8.82;2.10;;;;;;;22.82;27.98;99744.94;7768422;32;38728;-72
2023/05/11 10:47:43;;;;;;;2.62;1.80;;;;;;;22.44;28.24;99749.06;7765901;32;37201;-72
2023/05/11 10:52:30;;;;;;;7.97;2.30;;;;;;;22.39;26.78;99740.97;7765984;32;40217;-73
2023/05/11 10:56:59;;;;;;;2.95;2.20;;;;;;;22.00;26.63;99743.34;7765345;32;40754;-73
2023/05/11 11:01:57;;;;;;;2.87;1.80;;;;;;;21.93;28.36;99732.03;7764133;32;38661;-73
2023/05/11 11:06:27;;;;;;;2.28;1.42;;;;;;;21.88;25.93;99746.16;7725685;32;37303;-88
2023/05/11 11:10:45;;;;;;;3.90;1.90;;;;;;;22.44;27.39;99732.38;7774126;32;39964;-86
2023/05/11 11:15:04;;;;;;;5.00;1.90;;;;;;;23.32;26.50;99727.97;7780087;32;40139;-85
2023/05/11 11:19:29;;;;;;;3.10;1.80;;;;;;;23.47;24.66;99727.16;7768299;32;38510;-77
2023/05/11 11:23:48;;;;;;;2.92;1.70;;;;;;;23.46;25.12;99716.38;7769531;32;37124;-76
2023/05/11 11:28:05;;;;;;;3.40;1.70;;;;;;;23.91;22.17;99721.44;7777190;32;40044;-77
2023/05/11 11:32:22;;;;;;;2.33;1.67;;;;;;;23.89;24.25;99720.22;7772430;32;40057;-79
2023/05/11 11:37:00;;;;;;;8.57;1.90;;;;;;;23.46;23.47;99717.19;7770701;32;37584;-78
2023/05/11 11:41:28;;;;;;;4.30;1.67;;;;;;;23.61;22.76;99716.38;7763436;32;37158;-77
2023/05/11 11:45:51;;;;;;;5.80;1.70;;;;;;;23.75;24.14;99695.59;7765056;32;39334;-78
2023/05/11 11:50:13;;;;;;;6.00;1.45;;;;;;;23.93;23.69;99707.97;7765221;32;40078;-78
2023/05/11 11:54:48;;;;;;;2.58;1.50;;;;;;;24.18;23.09;99705.72;7761765;32;38996;-78
2023/05/11 11:59:07;;;;;;;2.87;1.50;;;;;;;25.01;21.17;99693.41;7761737;32;36751;-75
2023/05/11 12:03:24;;;;;;;4.62;1.77;;;;;;;24.55;22.68;99704.50;7761336;32;38963;-78
2023/05/11 12:07:44;;;;;;;2.40;1.52;;;;;;;24.56;21.79;99692.19;7763222;32;39657;-84
2023/05/11 12:12:01;;;;;;;1.85;1.50;;;;;;;24.11;20.75;99691.66;7763716;32;38603;-85
2023/05/11 12:16:17;;;;;;;4.90;1.50;;;;;;;23.86;22.62;99696.69;7764467;32;37889;-85
2023/05/11 12:20:34;;;;;;;4.03;1.65;;;;;;;24.47;21.40;99683.19;7771920;32;40580;-84
2023/05/11 12:24:54;;;;;;;6.70;1.70;;;;;;;24.22;21.75;99685.50;7791740;32;39649;-88
2023/05/11 12:29:14;;;;;;;3.97;1.40;;;;;;;25.58;21.42;99676.00;7790722;32;37706;-89
2023/05/11 12:33:30;;;;;;;3.55;1.52;;;;;;;25.51;20.79;99673.06;7774099;32;38026;-89
2023/05/11 12:37:46;;;;;;;4.05;1.30;;;;;;;24.83;19.90;99676.34;7788775;32;39853;-88
2023/05/11 12:42:03;;;;;;;8.13;1.77;;;;;;;25.97;20.59;99656.19;7789683;32;40761;-89
2023/05/11 12:46:20;;;;;;;3.83;1.23;;;;;;;25.25;19.50;99652.31;7774587;32;38026;-89
2023/05/11 12:50:46;;;;;;;5.20;1.67;;;;;;;25.32;19.18;99663.66;7763873;32;37157;-90
2023/05/11 12:55:02;;;;;;;5.05;1.58;;;;;;;24.97;19.16;99653.47;7791295;32;39187;-88
2023/05/11 12:59:30;;;;;;;2.33;1.48;;;;;;;25.23;18.96;99665.84;7791112;32;39876;-88
2023/05/11 13:03:47;;;;;;;5.05;1.30;;;;;;;24.38;19.06;99659.16;7790366;32;37824;-88
2023/05/11 13:08:04;;;;;;;3.05;1.40;;;;;;;24.34;19.73;99647.16;7777673;32;37107;-88
2023/05/11 13:12:20;;;;;;;3.80;1.37;;;;;;;24.81;19.65;99634.09;7750508;32;39476;-84
2023/05/11 13:16:37;;;;;;;3.78;1.40;;;;;;;25.08;19.28;99648.09;7762780;32;39956;-86
2023/05/11 13:21:07;;;;;;;3.92;1.42;;;;;;;25.60;20.80;99631.75;7772548;32;38026;-83
2023/05/11 13:25:23;;;;;;;3.03;1.40;;;;;;;25.38;21.17;99639.03;7793608;32;37178;-82
2023/05/11 13:29:40;;;;;;;4.90;1.30;;;;;;;26.36;19.23;99625.13;7794242;32;41213;-85
2023/05/11 13:33:56;;;;;;;3.33;1.40;;;;;;;26.34;20.02;99617.12;7794064;32;39716;-82
2023/05/11 13:38:13;;;;;;;2.03;1.50;;;;;;;25.75;18.60;99613.19;7794051;32;38006;-81
2023/05/11 13:42:32;;;;;;;4.30;1.50;;;;;;;25.31;19.69;99609.03;7793922;32;37862;-81
2023/05/11 13:46:49;;;;;;;3.40;1.52;;;;;;;25.78;19.42;99607.66;7788559;32;39283;-82
2023/05/11 13:51:05;;;;;;;4.15;1.50;;;;;;;25.57;19.48;99601.81;7764748;32;39609;-81
2023/05/11 13:55:22;;;;;;;1.73;1.33;;;;;;;25.74;19.58;99595.66;7792804;32;37844;-82
2023/05/11 13:59:38;;;;;;;4.35;1.65;;;;;;;26.29;19.77;99602.72;7793053;32;37757;-82
2023/05/11 14:03:55;;;;;;;2.75;1.20;;;;;;;26.12;20.60;99599.34;7778476;32;39382;-80
2023/05/11 14:08:13;;;;;;;8.50;1.67;;;;;;;26.00;19.23;99591.22;7765688;32;41006;-83
2023/05/11 14:12:29;;;;;;;2.60;1.35;;;;;;;26.89;18.96;99579.31;7765714;32;37709;-83
2023/05/11 14:16:45;;;;;;;4.43;1.20;;;;;;;26.31;18.52;99573.19;7765783;32;37140;-82
2023/05/11 14:21:02;;;;;;;1.50;1.20;;;;;;;26.61;18.12;99570.28;7751697;32;39903;-83
2023/05/11 14:25:18;;;;;;;1.92;1.23;;;;;;;26.08;18.51;99573.34;7765812;32;40918;-81
2023/05/11 14:29:35;;;;;;;1.62;1.15;;;;;;;26.18;18.82;99572.69;7765429;32;38736;-83
2023/05/11 14:33:56;;;;;;;3.22;1.40;;;;;;;26.65;18.21;99570.34;7765488;32;36765;-83
2023/05/11 14:38:13;;;;;;;6.60;1.70;;;;;;;27.06;17.03;99561.06;7765537;32;39366;-83
2023/05/11 14:42:30;;;;;;;3.05;1.45;;;;;;;26.26;17.30;99562.38;7765085;32;41130;-83
2023/05/11 14:46:46;;;;;;;3.05;1.40;;;;;;;26.65;18.63;99564.75;7765563;32;38561;-83
2023/05/11 14:51:03;;;;;;;2.55;1.30;;;;;;;26.07;17.85;99559.78;7764881;32;37029;-83
2023/05/11 14:55:20;;;;;;;3.03;1.37;;;;;;;25.64;18.64;99562.81;7765373;32;38813;-84
2023/05/11 14:59:36;;;;;;;5.75;1.50;;;;;;;26.14;17.78;99552.25;7765348;32;40789;-82
2023/05/11 15:04:15;;;;;;;3.15;1.40;;;;;;;26.57;18.73;99555.47;7764287;32;37592;-83
2023/05/11 15:08:32;;;;;;;2.72;1.37;;;;;;;25.62;18.40;99556.81;7764726;32;37249;-83
2023/05/11 15:12:48;;;;;;;4.07;1.60;;;;;;;25.92;18.52;99544.81;7786592;32;40191;-83
2023/05/11 15:17:05;;;;;;;8.82;1.37;;;;;;;25.67;18.17;99554.50;7781513;32;39839;-83
2023/05/11 15:21:21;;;;;;;1.95;1.33;;;;;;;25.28;19.35;99565.13;7764834;32;37917;-82
2023/05/11 15:25:38;;;;;;;2.15;1.40;;;;;;;25.26;18.95;99553.56;7788529;32;37251;-82
2023/05/11 15:29:55;;;;;;;2.47;1.37;;;;;;;25.66;19.85;99554.88;7792374;32;39207;-83
2023/05/11 15:34:11;;;;;;;1.73;1.30;;;;;;;25.66;19.75;99554.88;7791646;32;38149;-82
2023/05/11 15:38:27;;;;;;;5.05;1.50;;;;;;;25.42;19.90;99556.97;7791644;32;37917;-84
2023/05/11 15:42:43;;;;;;;2.87;1.40;;;;;;;25.08;18.99;99565.22;7790153;32;37105;-83
2023/05/11 15:47:00;;;;;;;3.65;1.50;;;;;;;25.06;19.21;99555.62;7778670;32;40612;-82
2023/05/11 15:51:17;;;;;;;2.67;1.65;;;;;;;24.59;19.90;99571.59;7766657;32;39916;-82
2023/05/11 15:55:33;;;;;;;3.90;1.37;;;;;;;24.60;19.48;99558.50;7770671;32;37847;-82
2023/05/11 15:59:49;;;;;;;6.28;1.58;;;;;;;24.38;20.60;99569.22;7775582;32;37898;-82
2023/05/11 16:04:06;;;;;;;5.10;1.50;;;;;;;24.09;21.31;99573.44;7767941;32;39217;-82
2023/05/11 16:08:22;;;;;;;1.98;1.35;;;;;;;23.29;22.03;99572.97;7787961;32;39741;-86
2023/05/11 16:12:38;;;;;;;5.55;1.58;;;;;;;23.18;21.43;99584.66;7783818;32;37965;-87
2023/05/11 16:16:55;;;;;;;2.33;1.73;;;;;;;22.84;21.30;99584.19;7776252;32;36966;-87
2023/05/11 16:21:14;;;;;;;4.72;1.55;;;;;;;22.64;21.35;99582.50;7787363;32;39851;-88
2023/05/11 16:25:31;;;;;;;7.30;1.60;;;;;;;22.43;22.23;99578.00;7750399;32;40656;-90
2023/05/11 16:29:47;;;;;;;3.80;1.85;;;;;;;22.75;21.37;99578.03;7764205;32;38973;-89
2023/05/11 16:34:04;;;;;;;1.87;1.50;;;;;;;22.75;22.32;99577.22;7764092;32;37848;-87
2023/05/11 16:38:21;;;;;;;8.88;1.80;;;;;;;22.38;22.21;99583.03;7764110;32;40306;-88
2023/05/11 16:42:38;;;;;;;3.30;1.40;;;;;;;22.14;22.65;99576.41;7785109;32;39974;-89
2023/05/11 16:46:55;;;;;;;1.73;1.12;;;;;;;22.19;22.69;99589.22;7790827;32;37982;-89
2023/05/11 16:51:12;;;;;;;5.62;1.80;;;;;;;22.10;23.29;99592.97;7777921;32;37963;-88
2023/05/11 16:55:30;;;;;;;4.60;1.40;;;;;;;22.09;23.00;99590.53;7763747;32;39331;-87
2023/05/11 16:59:47;;;;;;;3.20;1.80;;;;;;;22.00;24.14;99590.69;7763697;32;39710;-88
2023/05/11 17:04:04;;;;;;;3.10;1.60;;;;;;;21.48;24.05;99589.59;7763327;32;37930;-88
2023/05/11 17:08:20;;;;;;;4.70;1.58;;;;;;;21.65;24.11;99602.38;7763430;32;36782;-88
2023/05/11 17:12:37;;;;;;;5.93;1.60;;;;;;;21.80;24.28;99594.47;7763641;32;40257;-88
2023/05/11 17:16:54;;;;;;;10.27;1.92;;;;;;;21.66;24.27;99606.78;7771438;32;39554;-88
2023/05/11 17:21:11;;;;;;;2.75;1.67;;;;;;;21.81;24.67;99598.88;7785790;32;38598;-86
2023/05/11 17:25:28;;;;;;;2.87;1.60;;;;;;;21.64;25.08;99608.28;7774153;32;37784;-87
2023/05/11 17:29:45;;;;;;;3.25;1.73;;;;;;;21.75;25.19;99614.97;7765389;32;39363;-85
2023/05/11 17:34:02;;;;;;;4.90;1.70;;;;;;;21.68;25.06;99610.03;7790204;32;40545;-85
2023/05/11 17:38:20;;;;;;;3.95;1.85;;;;;;;21.64;25.28;99620.19;7789557;32;37425;-86
2023/05/11 17:42:37;;;;;;;3.42;1.70;;;;;;;20.72;26.77;99629.91;7778636;32;37140;-86
2023/05/11 17:46:54;;;;;;;3.92;1.70;;;;;;;20.92;26.62;99622.63;7768780;32;39456;-86
2023/05/11 17:51:11;;;;;;;3.03;2.03;;;;;;;21.11;26.58;99627.59;7770592;32;40533;-87
2023/05/11 17:55:27;;;;;;;5.72;2.10;;;;;;;21.16;26.70;99632.91;7763527;32;38566;-86
2023/05/11 17:59:44;;;;;;;6.05;2.12;;;;;;;21.11;27.06;99635.94;7762046;32;37983;-87
2023/05/11 18:04:02;;;;;;;4.32;2.15;;;;;;;20.92;27.62;99644.81;7762353;32;39292;-86
2023/05/11 18:08:18;;;;;;;6.07;2.12;;;;;;;20.35;28.92;99643.63;7783557;32;40807;-87
2023/05/11 18:12:35;;;;;;;2.33;1.90;;;;;;;20.28;29.32;99641.41;7773829;32;38673;-87
2023/05/11 18:16:51;;;;;;;4.03;2.03;;;;;;;20.74;28.66;99641.44;7701082;32;44788;-87
2023/05/11 18:21:11;;;;;;;4.72;1.98;;;;;;;20.87;29.30;99642.25;7723033;32;40569;-86
2023/05/11 18:25:30;;;;;;;3.22;1.62;;;;;;;20.82;28.92;99652.44;7725893;32;40764;-87
2023/05/11 18:29:46;;;;;;;3.62;2.20;;;;;;;20.81;28.58;99650.00;7711084;32;37969;-87
2023/05/11 18:34:03;;;;;;;4.28;2.12;;;;;;;20.54;29.14;99663.31;7712898;32;37892;-87
2023/05/11 18:38:19;;;;;;;5.53;2.42;;;;;;;20.62;29.33;99664.38;7717864;32;38632;-87
2023/05/11 18:42:36;;;;;;;4.62;2.37;;;;;;;20.17;31.10;99696.37;7734343;32;41177;-87
2023/05/11 18:46:52;;;;;;;7.28;2.90;;;;;;;20.03;32.44;99706.91;7728107;32;36358;-86
2023/05/11 18:51:09;;;;;;;7.07;2.12;;;;;;;19.57;33.98;99708.66;7720403;32;37798;-83
2023/05/11 18:55:26;;;;;;;5.60;2.62;;;;;;;19.07;33.86;99724.00;7718666;32;39378;-86
2023/05/11 18:59:46;;;;;;;7.37;2.50;;;;;;;18.65;34.25;99723.75;7712472;32;40807;-87
2023/05/11 19:04:03;;;;;;;6.50;2.40;;;;;;;18.82;34.17;99728.44;7727067;32;37896;-88
2023/05/11 19:08:19;;;;;;;3.12;2.25;;;;;;;18.76;34.36;99725.84;7737323;32;37778;-87
2023/05/11 19:12:37;;;;;;;4.55;2.08;;;;;;;18.65;34.58;99727.31;7712449;32;40172;-86
2023/05/11 19:16:53;;;;;;;6.28;2.28;;;;;;;18.16;35.48;99734.97;7712010;32;40777;-87
2023/05/11 19:21:10;;;;;;;5.15;2.20;;;;;;;18.34;35.36;99742.13;7721378;32;37986;-88
2023/05/11 19:25:27;;;;;;;6.25;2.15;;;;;;;17.93;35.92;99751.66;7715531;32;35696;-87
2023/05/11 19:29:43;;;;;;;4.82;2.05;;;;;;;18.29;35.23;99758.03;7712781;32;39953;-87
2023/05/11 19:34:01;;;;;;;7.22;2.40;;;;;;;17.89;35.85;99763.69;7705962;32;40945;-88
2023/05/11 19:38:17;;;;;;;8.63;3.37;;;;;;;18.54;34.68;99762.75;7720898;32;38122;-88
2023/05/11 19:42:34;;;;;;;8.05;2.40;;;;;;;18.39;34.69;99772.31;7711286;32;37340;-88
2023/05/11 19:46:54;;;;;;;3.90;2.10;;;;;;;18.41;35.26;99779.47;7711192;32;40114;-87
2023/05/11 19:51:11;;;;;;;3.83;1.95;;;;;;;18.29;35.03;99782.88;7711056;32;39974;-83
2023/05/11 19:55:27;;;;;;;7.32;1.95;;;;;;;18.35;35.10;99776.88;7731525;32;37790;-85
2023/05/11 19:59:43;;;;;;;5.20;2.08;;;;;;;18.29;34.67;99786.44;7735664;32;37840;-85
2023/05/11 20:03:59;;;;;;;3.72;2.20;;;;;;;17.89;35.38;99792.06;7737944;32;37948;-86
2023/05/11 20:08:16;;;;;;;4.30;2.50;;;;;;;18.17;35.18;99783.50;7721431;32;41461;-84
2023/05/11 20:12:32;;;;;;;5.78;1.90;;;;;;;18.23;35.04;99796.03;7731427;32;38000;-86
2023/05/11 20:16:49;;;;;;;3.47;1.98;;;;;;;18.12;36.34;99790.00;7734326;32;37047;-86